sensor_id;sensor_type;location;lat;lon;timestamp;P1;durP1;ratioP1;P2;durP2;ratioP2
72573;SDS011;60603;52.548;13.420;2023-03-01T00:00:39;42.75;;;18.80;;
72573;SDS011;60603;52.548;13.420;2023-03-01T00:03:20;38.95;;;17.85;;
72573;SDS011;60603;52.548;13.420;2023-03-01T00:05:46;40.25;;;17.23;;
72573;SDS011;60603;52.548;13.420;2023-03-01T00:08:12;33.22;;;16.45;;
72573;SDS011;60603;52.548;13.420;2023-03-01T00:10:38;38.13;;;16.77;;
72573;SDS011;60603;52.548;13.420;2023-03-01T00:13:04;33.15;;;15.90;;
72573;SDS011;60603;52.548;13.420;2023-03-01T00:15:31;50.95;;;23.20;;
72573;SDS011;60603;52.548;13.420;2023-03-01T00:17:57;47.20;;;17.90;;
72573;SDS011;60603;52.548;13.420;2023-03-01T00:20:23;32.65;;;16.15;;
72573;SDS011;60603;52.548;13.420;2023-03-01T00:22:49;33.65;;;15.85;;
72573;SDS011;60603;52.548;13.420;2023-03-01T00:25:15;34.72;;;17.10;;
72573;SDS011;60603;52.548;13.420;2023-03-01T00:27:40;35.00;;;16.48;;
72573;SDS011;60603;52.548;13.420;2023-03-01T00:30:07;32.10;;;13.90;;
72573;SDS011;60603;52.548;13.420;2023-03-01T00:32:33;35.33;;;17.42;;
72573;SDS011;60603;52.548;13.420;2023-03-01T00:34:59;31.67;;;14.82;;
72573;SDS011;60603;52.548;13.420;2023-03-01T00:37:25;28.98;;;14.80;;
72573;SDS011;60603;52.548;13.420;2023-03-01T00:39:51;35.83;;;14.55;;
72573;SDS011;60603;52.548;13.420;2023-03-01T00:42:17;28.80;;;15.18;;
72573;SDS011;60603;52.548;13.420;2023-03-01T00:44:43;32.75;;;14.68;;
72573;SDS011;60603;52.548;13.420;2023-03-01T00:47:09;32.88;;;14.63;;
72573;SDS011;60603;52.548;13.420;2023-03-01T00:49:35;30.50;;;13.73;;
72573;SDS011;60603;52.548;13.420;2023-03-01T00:52:01;33.70;;;14.27;;
72573;SDS011;60603;52.548;13.420;2023-03-01T00:54:27;22.67;;;11.45;;
72573;SDS011;60603;52.548;13.420;2023-03-01T00:56:53;44.75;;;18.20;;
72573;SDS011;60603;52.548;13.420;2023-03-01T00:59:19;25.77;;;12.32;;
72573;SDS011;60603;52.548;13.420;2023-03-01T01:01:45;27.98;;;12.40;;
72573;SDS011;60603;52.548;13.420;2023-03-01T01:04:11;25.88;;;11.80;;
72573;SDS011;60603;52.548;13.420;2023-03-01T01:06:41;30.30;;;14.80;;
72573;SDS011;60603;52.548;13.420;2023-03-01T01:09:09;33.80;;;15.70;;
72573;SDS011;60603;52.548;13.420;2023-03-01T01:11:42;34.92;;;16.15;;
72573;SDS011;60603;52.548;13.420;2023-03-01T01:14:09;35.30;;;16.00;;
72573;SDS011;60603;52.548;13.420;2023-03-01T01:16:35;29.25;;;15.10;;
72573;SDS011;60603;52.548;13.420;2023-03-01T01:19:01;34.40;;;15.30;;
72573;SDS011;60603;52.548;13.420;2023-03-01T01:21:27;25.02;;;11.88;;
72573;SDS011;60603;52.548;13.420;2023-03-01T01:23:54;23.15;;;11.93;;
72573;SDS011;60603;52.548;13.420;2023-03-01T01:26:21;22.55;;;12.77;;
72573;SDS011;60603;52.548;13.420;2023-03-01T01:31:23;22.77;;;11.07;;
72573;SDS011;60603;52.548;13.420;2023-03-01T01:33:50;24.83;;;12.25;;
72573;SDS011;60603;52.548;13.420;2023-03-01T01:36:17;28.20;;;12.52;;
72573;SDS011;60603;52.548;13.420;2023-03-01T01:38:43;25.92;;;12.57;;
72573;SDS011;60603;52.548;13.420;2023-03-01T01:41:09;27.63;;;13.55;;
72573;SDS011;60603;52.548;13.420;2023-03-01T01:43:38;30.98;;;13.85;;
72573;SDS011;60603;52.548;13.420;2023-03-01T01:48:48;28.73;;;13.38;;
72573;SDS011;60603;52.548;13.420;2023-03-01T01:51:19;30.23;;;14.05;;
72573;SDS011;60603;52.548;13.420;2023-03-01T01:53:51;27.45;;;13.02;;
72573;SDS011;60603;52.548;13.420;2023-03-01T01:56:20;31.20;;;14.27;;
72573;SDS011;60603;52.548;13.420;2023-03-01T01:58:48;23.85;;;14.20;;
72573;SDS011;60603;52.548;13.420;2023-03-01T02:01:15;27.13;;;14.75;;
72573;SDS011;60603;52.548;13.420;2023-03-01T02:03:41;27.65;;;14.70;;
72573;SDS011;60603;52.548;13.420;2023-03-01T02:06:12;25.00;;;13.18;;
72573;SDS011;60603;52.548;13.420;2023-03-01T02:08:44;24.27;;;12.55;;
72573;SDS011;60603;52.548;13.420;2023-03-01T02:11:11;29.13;;;14.27;;
72573;SDS011;60603;52.548;13.420;2023-03-01T02:13:40;26.38;;;12.38;;
72573;SDS011;60603;52.548;13.420;2023-03-01T02:16:09;23.73;;;11.60;;
72573;SDS011;60603;52.548;13.420;2023-03-01T02:18:37;26.17;;;12.27;;
72573;SDS011;60603;52.548;13.420;2023-03-01T02:21:10;27.23;;;12.90;;
72573;SDS011;60603;52.548;13.420;2023-03-01T02:23:54;24.92;;;12.50;;
72573;SDS011;60603;52.548;13.420;2023-03-01T02:26:33;29.40;;;13.43;;
72573;SDS011;60603;52.548;13.420;2023-03-01T02:29:02;27.23;;;12.52;;
72573;SDS011;60603;52.548;13.420;2023-03-01T02:31:28;26.70;;;13.65;;
72573;SDS011;60603;52.548;13.420;2023-03-01T02:34:10;29.58;;;13.52;;
72573;SDS011;60603;52.548;13.420;2023-03-01T02:39:18;24.08;;;13.95;;
72573;SDS011;60603;52.548;13.420;2023-03-01T02:41:48;24.50;;;12.88;;
72573;SDS011;60603;52.548;13.420;2023-03-01T02:44:16;25.63;;;13.60;;
72573;SDS011;60603;52.548;13.420;2023-03-01T02:46:50;24.48;;;12.65;;
72573;SDS011;60603;52.548;13.420;2023-03-01T02:49:25;27.25;;;12.57;;
72573;SDS011;60603;52.548;13.420;2023-03-01T02:55:06;21.77;;;10.88;;
72573;SDS011;60603;52.548;13.420;2023-03-01T02:57:36;28.45;;;11.95;;
72573;SDS011;60603;52.548;13.420;2023-03-01T03:00:08;23.52;;;12.27;;
72573;SDS011;60603;52.548;13.420;2023-03-01T03:02:36;25.02;;;12.75;;
72573;SDS011;60603;52.548;13.420;2023-03-01T03:07:34;24.58;;;10.98;;
72573;SDS011;60603;52.548;13.420;2023-03-01T03:10:02;23.30;;;11.88;;
72573;SDS011;60603;52.548;13.420;2023-03-01T03:12:30;24.40;;;11.95;;
72573;SDS011;60603;52.548;13.420;2023-03-01T03:14:56;24.30;;;11.25;;
72573;SDS011;60603;52.548;13.420;2023-03-01T03:17:21;19.98;;;10.90;;
72573;SDS011;60603;52.548;13.420;2023-03-01T03:19:47;23.63;;;11.55;;
72573;SDS011;60603;52.548;13.420;2023-03-01T03:22:13;20.40;;;10.52;;
72573;SDS011;60603;52.548;13.420;2023-03-01T03:24:40;20.27;;;10.90;;
72573;SDS011;60603;52.548;13.420;2023-03-01T03:27:06;19.08;;;9.38;;
72573;SDS011;60603;52.548;13.420;2023-03-01T03:29:32;19.63;;;9.90;;
72573;SDS011;60603;52.548;13.420;2023-03-01T03:31:58;25.80;;;10.88;;
72573;SDS011;60603;52.548;13.420;2023-03-01T03:34:24;26.80;;;12.02;;
72573;SDS011;60603;52.548;13.420;2023-03-01T03:36:56;23.70;;;11.23;;
72573;SDS011;60603;52.548;13.420;2023-03-01T03:39:25;24.00;;;9.50;;
72573;SDS011;60603;52.548;13.420;2023-03-01T03:42:00;26.02;;;10.82;;
72573;SDS011;60603;52.548;13.420;2023-03-01T03:44:26;26.25;;;9.02;;
72573;SDS011;60603;52.548;13.420;2023-03-01T03:46:52;21.77;;;10.88;;
72573;SDS011;60603;52.548;13.420;2023-03-01T03:49:18;21.63;;;9.80;;
72573;SDS011;60603;52.548;13.420;2023-03-01T03:51:45;21.80;;;10.20;;
72573;SDS011;60603;52.548;13.420;2023-03-01T03:54:11;23.20;;;10.63;;
72573;SDS011;60603;52.548;13.420;2023-03-01T03:56:36;21.73;;;10.88;;
72573;SDS011;60603;52.548;13.420;2023-03-01T03:59:02;21.08;;;10.57;;
72573;SDS011;60603;52.548;13.420;2023-03-01T04:01:28;19.48;;;10.43;;
72573;SDS011;60603;52.548;13.420;2023-03-01T04:03:54;21.13;;;10.43;;
72573;SDS011;60603;52.548;13.420;2023-03-01T04:06:20;24.05;;;9.85;;
72573;SDS011;60603;52.548;13.420;2023-03-01T04:08:46;20.30;;;10.30;;
72573;SDS011;60603;52.548;13.420;2023-03-01T04:11:12;20.52;;;10.77;;
72573;SDS011;60603;52.548;13.420;2023-03-01T04:13:54;29.10;;;13.60;;
72573;SDS011;60603;52.548;13.420;2023-03-01T04:16:21;19.52;;;10.27;;
72573;SDS011;60603;52.548;13.420;2023-03-01T04:18:47;21.92;;;10.52;;
72573;SDS011;60603;52.548;13.420;2023-03-01T04:21:13;23.90;;;11.15;;
72573;SDS011;60603;52.548;13.420;2023-03-01T04:23:39;22.10;;;10.93;;
72573;SDS011;60603;52.548;13.420;2023-03-01T04:26:06;26.48;;;11.63;;
72573;SDS011;60603;52.548;13.420;2023-03-01T04:28:34;22.58;;;11.57;;
72573;SDS011;60603;52.548;13.420;2023-03-01T04:31:05;27.33;;;11.80;;
72573;SDS011;60603;52.548;13.420;2023-03-01T04:33:40;26.23;;;11.43;;
72573;SDS011;60603;52.548;13.420;2023-03-01T04:36:20;23.35;;;11.20;;
72573;SDS011;60603;52.548;13.420;2023-03-01T04:38:48;23.55;;;11.43;;
72573;SDS011;60603;52.548;13.420;2023-03-01T04:41:15;26.13;;;11.10;;
72573;SDS011;60603;52.548;13.420;2023-03-01T04:43:42;24.45;;;11.98;;
72573;SDS011;60603;52.548;13.420;2023-03-01T04:46:10;25.15;;;11.95;;
72573;SDS011;60603;52.548;13.420;2023-03-01T04:48:38;25.30;;;11.48;;
72573;SDS011;60603;52.548;13.420;2023-03-01T04:51:05;28.35;;;10.80;;
72573;SDS011;60603;52.548;13.420;2023-03-01T04:53:33;26.27;;;12.52;;
72573;SDS011;60603;52.548;13.420;2023-03-01T04:56:01;29.05;;;12.45;;
72573;SDS011;60603;52.548;13.420;2023-03-01T04:58:27;22.83;;;10.77;;
72573;SDS011;60603;52.548;13.420;2023-03-01T05:00:54;21.98;;;10.43;;
72573;SDS011;60603;52.548;13.420;2023-03-01T05:03:20;23.20;;;12.20;;
72573;SDS011;60603;52.548;13.420;2023-03-01T05:05:48;25.02;;;11.68;;
72573;SDS011;60603;52.548;13.420;2023-03-01T05:08:16;23.23;;;11.07;;
72573;SDS011;60603;52.548;13.420;2023-03-01T05:10:46;24.73;;;12.23;;
72573;SDS011;60603;52.548;13.420;2023-03-01T05:13:15;30.58;;;12.13;;
72573;SDS011;60603;52.548;13.420;2023-03-01T05:15:59;20.85;;;10.40;;
72573;SDS011;60603;52.548;13.420;2023-03-01T05:18:27;24.75;;;11.15;;
72573;SDS011;60603;52.548;13.420;2023-03-01T05:20:54;28.42;;;11.88;;
72573;SDS011;60603;52.548;13.420;2023-03-01T05:23:24;24.50;;;11.13;;
72573;SDS011;60603;52.548;13.420;2023-03-01T05:25:50;27.15;;;12.10;;
72573;SDS011;60603;52.548;13.420;2023-03-01T05:28:18;23.85;;;11.73;;
72573;SDS011;60603;52.548;13.420;2023-03-01T05:30:45;27.08;;;11.85;;
72573;SDS011;60603;52.548;13.420;2023-03-01T05:33:11;28.33;;;12.68;;
72573;SDS011;60603;52.548;13.420;2023-03-01T05:35:43;26.38;;;12.77;;
72573;SDS011;60603;52.548;13.420;2023-03-01T05:38:11;22.00;;;11.20;;
72573;SDS011;60603;52.548;13.420;2023-03-01T05:40:40;23.33;;;11.63;;
72573;SDS011;60603;52.548;13.420;2023-03-01T05:43:10;24.95;;;12.73;;
72573;SDS011;60603;52.548;13.420;2023-03-01T05:45:37;26.23;;;12.23;;
72573;SDS011;60603;52.548;13.420;2023-03-01T05:48:04;24.45;;;12.68;;
72573;SDS011;60603;52.548;13.420;2023-03-01T05:50:35;25.63;;;12.10;;
72573;SDS011;60603;52.548;13.420;2023-03-01T05:53:06;28.13;;;14.50;;
72573;SDS011;60603;52.548;13.420;2023-03-01T05:55:35;25.23;;;13.32;;
72573;SDS011;60603;52.548;13.420;2023-03-01T05:58:02;24.38;;;11.98;;
72573;SDS011;60603;52.548;13.420;2023-03-01T06:00:30;24.45;;;11.93;;
72573;SDS011;60603;52.548;13.420;2023-03-01T06:02:56;27.75;;;12.38;;
72573;SDS011;60603;52.548;13.420;2023-03-01T06:05:23;27.02;;;12.05;;
72573;SDS011;60603;52.548;13.420;2023-03-01T06:07:49;23.58;;;12.00;;
72573;SDS011;60603;52.548;13.420;2023-03-01T06:10:15;28.73;;;13.50;;
72573;SDS011;60603;52.548;13.420;2023-03-01T06:12:42;24.60;;;12.27;;
72573;SDS011;60603;52.548;13.420;2023-03-01T06:15:09;29.65;;;12.65;;
72573;SDS011;60603;52.548;13.420;2023-03-01T06:17:40;26.90;;;13.27;;
72573;SDS011;60603;52.548;13.420;2023-03-01T06:20:07;28.90;;;13.23;;
72573;SDS011;60603;52.548;13.420;2023-03-01T06:22:35;25.33;;;13.05;;
72573;SDS011;60603;52.548;13.420;2023-03-01T06:25:01;28.98;;;13.45;;
72573;SDS011;60603;52.548;13.420;2023-03-01T06:27:27;25.90;;;11.90;;
72573;SDS011;60603;52.548;13.420;2023-03-01T06:29:53;28.65;;;12.20;;
72573;SDS011;60603;52.548;13.420;2023-03-01T06:32:19;28.58;;;12.25;;
72573;SDS011;60603;52.548;13.420;2023-03-01T06:34:45;35.67;;;14.80;;
72573;SDS011;60603;52.548;13.420;2023-03-01T06:37:11;25.55;;;12.13;;
72573;SDS011;60603;52.548;13.420;2023-03-01T06:39:37;28.02;;;13.63;;
72573;SDS011;60603;52.548;13.420;2023-03-01T06:42:03;27.63;;;12.52;;
72573;SDS011;60603;52.548;13.420;2023-03-01T06:44:29;34.00;;;12.93;;
72573;SDS011;60603;52.548;13.420;2023-03-01T06:46:55;27.38;;;12.95;;
72573;SDS011;60603;52.548;13.420;2023-03-01T06:49:21;27.75;;;12.98;;
72573;SDS011;60603;52.548;13.420;2023-03-01T06:51:47;27.77;;;13.55;;
72573;SDS011;60603;52.548;13.420;2023-03-01T06:54:13;26.42;;;11.13;;
72573;SDS011;60603;52.548;13.420;2023-03-01T06:56:39;26.13;;;12.75;;
72573;SDS011;60603;52.548;13.420;2023-03-01T06:59:05;25.63;;;12.30;;
72573;SDS011;60603;52.548;13.420;2023-03-01T07:01:31;28.67;;;13.32;;
72573;SDS011;60603;52.548;13.420;2023-03-01T07:03:57;32.85;;;13.50;;
72573;SDS011;60603;52.548;13.420;2023-03-01T07:06:23;23.92;;;12.57;;
72573;SDS011;60603;52.548;13.420;2023-03-01T07:08:49;24.55;;;12.75;;
72573;SDS011;60603;52.548;13.420;2023-03-01T07:11:15;29.10;;;12.50;;
72573;SDS011;60603;52.548;13.420;2023-03-01T07:13:41;26.58;;;13.35;;
72573;SDS011;60603;52.548;13.420;2023-03-01T07:16:07;25.08;;;12.25;;
72573;SDS011;60603;52.548;13.420;2023-03-01T07:18:33;26.95;;;14.70;;
72573;SDS011;60603;52.548;13.420;2023-03-01T07:21:09;29.05;;;15.52;;
72573;SDS011;60603;52.548;13.420;2023-03-01T07:23:36;24.83;;;12.85;;
72573;SDS011;60603;52.548;13.420;2023-03-01T07:26:03;26.70;;;14.13;;
72573;SDS011;60603;52.548;13.420;2023-03-01T07:28:29;30.70;;;13.90;;
72573;SDS011;60603;52.548;13.420;2023-03-01T07:31:00;27.30;;;14.63;;
72573;SDS011;60603;52.548;13.420;2023-03-01T07:33:27;23.95;;;12.98;;
72573;SDS011;60603;52.548;13.420;2023-03-01T07:35:59;26.23;;;12.80;;
72573;SDS011;60603;52.548;13.420;2023-03-01T07:38:27;29.73;;;13.48;;
72573;SDS011;60603;52.548;13.420;2023-03-01T07:40:53;27.10;;;13.13;;
72573;SDS011;60603;52.548;13.420;2023-03-01T07:43:19;32.17;;;14.98;;
72573;SDS011;60603;52.548;13.420;2023-03-01T07:45:46;26.63;;;12.77;;
72573;SDS011;60603;52.548;13.420;2023-03-01T07:48:12;26.85;;;13.00;;
72573;SDS011;60603;52.548;13.420;2023-03-01T07:50:38;26.88;;;12.43;;
72573;SDS011;60603;52.548;13.420;2023-03-01T07:53:04;27.75;;;12.25;;
72573;SDS011;60603;52.548;13.420;2023-03-01T07:55:30;23.83;;;10.95;;
72573;SDS011;60603;52.548;13.420;2023-03-01T07:57:56;22.67;;;10.02;;
72573;SDS011;60603;52.548;13.420;2023-03-01T08:00:22;22.70;;;10.07;;
72573;SDS011;60603;52.548;13.420;2023-03-01T08:02:48;20.17;;;9.82;;
72573;SDS011;60603;52.548;13.420;2023-03-01T08:05:14;18.90;;;8.32;;
72573;SDS011;60603;52.548;13.420;2023-03-01T08:07:40;12.48;;;5.65;;
72573;SDS011;60603;52.548;13.420;2023-03-01T08:10:06;14.57;;;6.28;;
72573;SDS011;60603;52.548;13.420;2023-03-01T08:12:32;14.80;;;5.93;;
72573;SDS011;60603;52.548;13.420;2023-03-01T08:14:58;14.40;;;8.13;;
72573;SDS011;60603;52.548;13.420;2023-03-01T08:17:24;15.38;;;7.05;;
72573;SDS011;60603;52.548;13.420;2023-03-01T08:19:50;12.43;;;6.50;;
72573;SDS011;60603;52.548;13.420;2023-03-01T08:22:15;16.10;;;6.35;;
72573;SDS011;60603;52.548;13.420;2023-03-01T08:24:41;12.63;;;6.53;;
72573;SDS011;60603;52.548;13.420;2023-03-01T08:27:07;12.90;;;6.00;;
72573;SDS011;60603;52.548;13.420;2023-03-01T08:29:34;10.50;;;4.65;;
72573;SDS011;60603;52.548;13.420;2023-03-01T08:32:00;13.55;;;4.68;;
72573;SDS011;60603;52.548;13.420;2023-03-01T08:34:26;13.85;;;4.47;;
72573;SDS011;60603;52.548;13.420;2023-03-01T08:36:52;10.15;;;4.85;;
72573;SDS011;60603;52.548;13.420;2023-03-01T08:39:19;8.68;;;4.13;;
72573;SDS011;60603;52.548;13.420;2023-03-01T08:41:46;9.73;;;4.30;;
72573;SDS011;60603;52.548;13.420;2023-03-01T08:44:13;13.60;;;5.13;;
72573;SDS011;60603;52.548;13.420;2023-03-01T08:46:42;12.45;;;5.05;;
72573;SDS011;60603;52.548;13.420;2023-03-01T08:49:15;10.88;;;5.30;;
72573;SDS011;60603;52.548;13.420;2023-03-01T08:51:43;11.75;;;5.63;;
72573;SDS011;60603;52.548;13.420;2023-03-01T08:54:10;13.13;;;4.72;;
72573;SDS011;60603;52.548;13.420;2023-03-01T08:56:38;8.70;;;4.75;;
72573;SDS011;60603;52.548;13.420;2023-03-01T08:59:04;12.85;;;4.68;;
72573;SDS011;60603;52.548;13.420;2023-03-01T09:01:30;10.48;;;5.20;;
72573;SDS011;60603;52.548;13.420;2023-03-01T09:03:56;9.77;;;4.50;;
72573;SDS011;60603;52.548;13.420;2023-03-01T09:06:22;8.80;;;4.15;;
72573;SDS011;60603;52.548;13.420;2023-03-01T09:08:49;7.57;;;4.00;;
72573;SDS011;60603;52.548;13.420;2023-03-01T09:11:16;7.40;;;3.92;;
72573;SDS011;60603;52.548;13.420;2023-03-01T09:13:44;9.07;;;3.80;;
72573;SDS011;60603;52.548;13.420;2023-03-01T09:16:11;7.78;;;4.22;;
72573;SDS011;60603;52.548;13.420;2023-03-01T09:18:38;9.05;;;3.83;;
72573;SDS011;60603;52.548;13.420;2023-03-01T09:21:05;8.95;;;3.78;;
72573;SDS011;60603;52.548;13.420;2023-03-01T09:23:36;8.48;;;3.97;;
72573;SDS011;60603;52.548;13.420;2023-03-01T09:26:05;9.07;;;4.32;;
72573;SDS011;60603;52.548;13.420;2023-03-01T09:28:35;10.50;;;4.18;;
72573;SDS011;60603;52.548;13.420;2023-03-01T09:31:02;10.35;;;5.00;;
72573;SDS011;60603;52.548;13.420;2023-03-01T09:33:29;8.85;;;4.43;;
72573;SDS011;60603;52.548;13.420;2023-03-01T09:35:57;9.13;;;4.70;;
72573;SDS011;60603;52.548;13.420;2023-03-01T09:38:23;9.45;;;4.15;;
72573;SDS011;60603;52.548;13.420;2023-03-01T09:40:49;8.98;;;3.42;;
72573;SDS011;60603;52.548;13.420;2023-03-01T09:43:18;8.65;;;4.03;;
72573;SDS011;60603;52.548;13.420;2023-03-01T09:45:49;7.80;;;2.83;;
72573;SDS011;60603;52.548;13.420;2023-03-01T09:48:18;8.85;;;4.32;;
72573;SDS011;60603;52.548;13.420;2023-03-01T09:50:47;9.88;;;5.18;;
72573;SDS011;60603;52.548;13.420;2023-03-01T09:53:16;8.48;;;3.58;;
72573;SDS011;60603;52.548;13.420;2023-03-01T09:58:49;6.40;;;3.00;;
72573;SDS011;60603;52.548;13.420;2023-03-01T10:01:27;5.68;;;2.53;;
72573;SDS011;60603;52.548;13.420;2023-03-01T10:06:46;4.55;;;2.00;;
72573;SDS011;60603;52.548;13.420;2023-03-01T10:09:43;5.78;;;2.17;;
72573;SDS011;60603;52.548;13.420;2023-03-01T10:12:15;6.40;;;2.67;;
72573;SDS011;60603;52.548;13.420;2023-03-01T10:14:52;5.95;;;2.15;;
72573;SDS011;60603;52.548;13.420;2023-03-01T10:17:33;5.75;;;2.65;;
72573;SDS011;60603;52.548;13.420;2023-03-01T10:20:15;5.20;;;2.40;;
72573;SDS011;60603;52.548;13.420;2023-03-01T10:22:43;9.07;;;2.65;;
72573;SDS011;60603;52.548;13.420;2023-03-01T10:25:17;6.72;;;2.63;;
72573;SDS011;60603;52.548;13.420;2023-03-01T10:27:53;5.00;;;2.33;;
72573;SDS011;60603;52.548;13.420;2023-03-01T10:30:37;5.93;;;2.58;;
72573;SDS011;60603;52.548;13.420;2023-03-01T10:33:13;4.65;;;2.17;;
72573;SDS011;60603;52.548;13.420;2023-03-01T10:35:41;11.25;;;4.13;;
72573;SDS011;60603;52.548;13.420;2023-03-01T10:38:08;7.40;;;3.00;;
72573;SDS011;60603;52.548;13.420;2023-03-01T10:40:49;5.30;;;2.30;;
72573;SDS011;60603;52.548;13.420;2023-03-01T10:43:15;5.28;;;2.45;;
72573;SDS011;60603;52.548;13.420;2023-03-01T10:45:42;6.72;;;2.65;;
72573;SDS011;60603;52.548;13.420;2023-03-01T10:50:34;6.55;;;2.38;;
72573;SDS011;60603;52.548;13.420;2023-03-01T10:53:01;5.22;;;2.63;;
72573;SDS011;60603;52.548;13.420;2023-03-01T11:00:53;5.82;;;2.30;;
72573;SDS011;60603;52.548;13.420;2023-03-01T11:03:21;6.90;;;2.40;;
72573;SDS011;60603;52.548;13.420;2023-03-01T11:06:03;8.10;;;2.85;;
72573;SDS011;60603;52.548;13.420;2023-03-01T11:11:13;7.32;;;2.63;;
72573;SDS011;60603;52.548;13.420;2023-03-01T11:13:59;5.45;;;2.60;;
72573;SDS011;60603;52.548;13.420;2023-03-01T11:24:14;4.53;;;1.95;;
72573;SDS011;60603;52.548;13.420;2023-03-01T11:26:42;5.63;;;2.10;;
72573;SDS011;60603;52.548;13.420;2023-03-01T11:29:26;7.55;;;2.35;;
72573;SDS011;60603;52.548;13.420;2023-03-01T11:31:56;7.63;;;2.47;;
72573;SDS011;60603;52.548;13.420;2023-03-01T11:34:28;5.60;;;2.80;;
72573;SDS011;60603;52.548;13.420;2023-03-01T11:37:02;7.70;;;2.33;;
72573;SDS011;60603;52.548;13.420;2023-03-01T11:50:52;5.43;;;2.17;;
72573;SDS011;60603;52.548;13.420;2023-03-01T11:53:27;7.15;;;2.65;;
72573;SDS011;60603;52.548;13.420;2023-03-01T11:56:23;6.70;;;1.98;;
72573;SDS011;60603;52.548;13.420;2023-03-01T11:59:02;5.07;;;2.08;;
72573;SDS011;60603;52.548;13.420;2023-03-01T12:01:44;6.05;;;2.33;;
72573;SDS011;60603;52.548;13.420;2023-03-01T12:07:00;6.47;;;2.25;;
72573;SDS011;60603;52.548;13.420;2023-03-01T12:09:52;4.30;;;1.88;;
72573;SDS011;60603;52.548;13.420;2023-03-01T12:12:26;4.53;;;1.83;;
72573;SDS011;60603;52.548;13.420;2023-03-01T12:14:57;7.72;;;2.03;;
72573;SDS011;60603;52.548;13.420;2023-03-01T12:20:41;5.18;;;1.70;;
72573;SDS011;60603;52.548;13.420;2023-03-01T12:26:18;4.50;;;2.28;;
72573;SDS011;60603;52.548;13.420;2023-03-01T12:34:42;7.82;;;2.58;;
72573;SDS011;60603;52.548;13.420;2023-03-01T12:50:41;4.35;;;2.20;;
72573;SDS011;60603;52.548;13.420;2023-03-01T12:53:30;5.00;;;1.90;;
72573;SDS011;60603;52.548;13.420;2023-03-01T12:55:57;6.60;;;2.00;;
72573;SDS011;60603;52.548;13.420;2023-03-01T12:58:32;5.55;;;2.22;;
72573;SDS011;60603;52.548;13.420;2023-03-01T13:17:48;4.47;;;1.55;;
72573;SDS011;60603;52.548;13.420;2023-03-01T13:20:24;4.25;;;1.73;;
72573;SDS011;60603;52.548;13.420;2023-03-01T13:33:51;4.20;;;1.70;;
72573;SDS011;60603;52.548;13.420;2023-03-01T13:38:59;4.47;;;1.48;;
72573;SDS011;60603;52.548;13.420;2023-03-01T13:44:50;3.80;;;1.65;;
72573;SDS011;60603;52.548;13.420;2023-03-01T13:46:59;5.60;;;1.70;;
72573;SDS011;60603;52.548;13.420;2023-03-01T13:50:15;5.13;;;2.08;;
72573;SDS011;60603;52.548;13.420;2023-03-01T13:52:34;5.88;;;1.83;;
72573;SDS011;60603;52.548;13.420;2023-03-01T13:55:18;5.05;;;2.15;;
72573;SDS011;60603;52.548;13.420;2023-03-01T13:57:51;4.97;;;2.10;;
72573;SDS011;60603;52.548;13.420;2023-03-01T14:00:39;4.85;;;1.80;;
72573;SDS011;60603;52.548;13.420;2023-03-01T14:03:10;5.00;;;2.10;;
72573;SDS011;60603;52.548;13.420;2023-03-01T14:05:41;5.75;;;1.77;;
72573;SDS011;60603;52.548;13.420;2023-03-01T14:08:23;7.30;;;1.90;;
72573;SDS011;60603;52.548;13.420;2023-03-01T14:16:28;4.45;;;1.52;;
72573;SDS011;60603;52.548;13.420;2023-03-01T14:19:14;3.97;;;1.70;;
72573;SDS011;60603;52.548;13.420;2023-03-01T14:24:24;3.80;;;1.80;;
72573;SDS011;60603;52.548;13.420;2023-03-01T14:26:50;4.47;;;1.70;;
72573;SDS011;60603;52.548;13.420;2023-03-01T14:29:36;6.32;;;1.85;;
72573;SDS011;60603;52.548;13.420;2023-03-01T14:32:17;5.07;;;1.60;;
72573;SDS011;60603;52.548;13.420;2023-03-01T14:34:46;4.22;;;1.88;;
72573;SDS011;60603;52.548;13.420;2023-03-01T14:37:25;4.55;;;1.90;;
72573;SDS011;60603;52.548;13.420;2023-03-01T14:39:53;5.43;;;1.50;;
72573;SDS011;60603;52.548;13.420;2023-03-01T14:42:23;5.18;;;1.80;;
72573;SDS011;60603;52.548;13.420;2023-03-01T14:44:52;3.90;;;1.60;;
72573;SDS011;60603;52.548;13.420;2023-03-01T14:47:30;6.75;;;1.90;;
72573;SDS011;60603;52.548;13.420;2023-03-01T14:49:58;5.18;;;1.75;;
72573;SDS011;60603;52.548;13.420;2023-03-01T14:52:36;3.63;;;1.55;;
72573;SDS011;60603;52.548;13.420;2023-03-01T14:55:05;6.28;;;1.80;;
72573;SDS011;60603;52.548;13.420;2023-03-01T14:57:33;4.43;;;1.90;;
72573;SDS011;60603;52.548;13.420;2023-03-01T15:00:00;6.90;;;2.10;;
72573;SDS011;60603;52.548;13.420;2023-03-01T15:02:30;6.72;;;1.65;;
72573;SDS011;60603;52.548;13.420;2023-03-01T15:04:58;4.47;;;1.60;;
72573;SDS011;60603;52.548;13.420;2023-03-01T15:07:34;3.10;;;1.50;;
72573;SDS011;60603;52.548;13.420;2023-03-01T15:10:03;6.47;;;1.67;;
72573;SDS011;60603;52.548;13.420;2023-03-01T15:14:56;5.90;;;1.90;;
72573;SDS011;60603;52.548;13.420;2023-03-01T15:17:26;4.75;;;1.80;;
72573;SDS011;60603;52.548;13.420;2023-03-01T15:19:58;4.28;;;1.80;;
72573;SDS011;60603;52.548;13.420;2023-03-01T15:22:25;4.90;;;2.38;;
72573;SDS011;60603;52.548;13.420;2023-03-01T15:24:52;6.10;;;2.42;;
72573;SDS011;60603;52.548;13.420;2023-03-01T15:27:24;3.58;;;1.65;;
72573;SDS011;60603;52.548;13.420;2023-03-01T15:29:58;5.85;;;2.17;;
72573;SDS011;60603;52.548;13.420;2023-03-01T15:34:57;5.35;;;2.13;;
72573;SDS011;60603;52.548;13.420;2023-03-01T15:40:03;4.95;;;1.85;;
72573;SDS011;60603;52.548;13.420;2023-03-01T15:42:46;6.03;;;1.80;;
72573;SDS011;60603;52.548;13.420;2023-03-01T15:47:48;9.68;;;2.13;;
72573;SDS011;60603;52.548;13.420;2023-03-01T15:50:30;4.22;;;1.88;;
72573;SDS011;60603;52.548;13.420;2023-03-01T15:52:58;6.53;;;1.88;;
72573;SDS011;60603;52.548;13.420;2023-03-01T15:55:30;5.53;;;2.20;;
72573;SDS011;60603;52.548;13.420;2023-03-01T15:57:59;4.63;;;1.70;;
72573;SDS011;60603;52.548;13.420;2023-03-01T16:00:26;5.35;;;2.00;;
72573;SDS011;60603;52.548;13.420;2023-03-01T16:02:53;7.65;;;2.40;;
72573;SDS011;60603;52.548;13.420;2023-03-01T16:05:31;4.78;;;1.85;;
72573;SDS011;60603;52.548;13.420;2023-03-01T16:07:58;4.38;;;1.83;;
72573;SDS011;60603;52.548;13.420;2023-03-01T16:10:24;5.85;;;2.25;;
72573;SDS011;60603;52.548;13.420;2023-03-01T16:12:50;3.75;;;1.73;;
72573;SDS011;60603;52.548;13.420;2023-03-01T16:15:19;5.00;;;1.92;;
72573;SDS011;60603;52.548;13.420;2023-03-01T16:17:52;4.57;;;1.75;;
72573;SDS011;60603;52.548;13.420;2023-03-01T16:20:19;7.15;;;1.95;;
72573;SDS011;60603;52.548;13.420;2023-03-01T16:22:45;5.35;;;1.80;;
72573;SDS011;60603;52.548;13.420;2023-03-01T16:25:16;9.20;;;2.38;;
72573;SDS011;60603;52.548;13.420;2023-03-01T16:27:44;6.47;;;2.50;;
72573;SDS011;60603;52.548;13.420;2023-03-01T16:30:12;6.32;;;2.30;;
72573;SDS011;60603;52.548;13.420;2023-03-01T16:32:39;7.07;;;2.28;;
72573;SDS011;60603;52.548;13.420;2023-03-01T16:35:06;7.13;;;2.58;;
72573;SDS011;60603;52.548;13.420;2023-03-01T16:37:35;4.63;;;2.03;;
72573;SDS011;60603;52.548;13.420;2023-03-01T16:40:06;8.25;;;3.03;;
72573;SDS011;60603;52.548;13.420;2023-03-01T16:42:33;7.28;;;2.78;;